createdAt,value
2019-02-28T00:00:37.201Z,56.82
2019-02-28T00:03:43.117Z,57.39
2019-02-28T00:06:47.917Z,56.86
2019-02-28T00:09:52.649Z,57.30
2019-02-28T00:12:57.074Z,56.85
2019-02-28T00:16:03.375Z,56.96
2019-02-28T00:19:07.664Z,57.12
2019-02-28T00:22:14.640Z,56.69
2019-02-28T00:25:18.549Z,56.78
2019-02-28T00:28:25.548Z,56.89
2019-02-28T00:31:29.546Z,56.43
2019-02-28T00:34:36.296Z,57.01
2019-02-28T00:37:40.156Z,56.71
2019-02-28T00:40:44.598Z,56.17
2019-02-28T00:43:49.288Z,56.13
2019-02-28T00:46:53.731Z,56.99
2019-02-28T00:49:58.156Z,57.28
2019-02-28T00:53:02.602Z,57.27
2019-02-28T00:56:07.398Z,57.56
2019-02-28T00:59:12.125Z,58.04
2019-02-28T01:02:17.685Z,57.71
2019-02-28T01:05:22.723Z,57.41
2019-02-28T01:08:27.459Z,57.14
2019-02-28T01:11:32.062Z,57.42
2019-02-28T01:14:36.674Z,57.66
2019-02-28T01:17:41.535Z,57.01
2019-02-28T01:20:49.953Z,57.98
2019-02-28T01:23:52.433Z,58.52
2019-02-28T01:26:56.869Z,58.58
2019-02-28T01:30:01.296Z,59.06
2019-02-28T01:33:05.740Z,59.37
2019-02-28T01:36:12.178Z,59.61
2019-02-28T01:39:16.906Z,59.47
2019-02-28T01:42:21.795Z,58.94
2019-02-28T01:45:26.567Z,59.09
2019-02-28T01:48:31.009Z,59.75
2019-02-28T01:51:36.699Z,59.94
2019-02-28T01:54:41.240Z,59.71
2019-02-28T01:57:45.692Z,59.50
2019-02-28T02:00:50.425Z,59.91
2019-02-28T02:03:55.158Z,59.68
2019-02-28T02:07:00.404Z,59.87
2019-02-28T02:10:10.765Z,60.51
2019-02-28T02:13:15.215Z,60.32
2019-02-28T02:16:19.653Z,59.76
2019-02-28T02:19:24.087Z,59.62
2019-02-28T02:22:28.522Z,59.63
2019-02-28T02:25:37.268Z,59.61
2019-02-28T02:28:39.130Z,59.81
2019-02-28T02:31:43.887Z,59.63
2019-02-28T02:34:48.615Z,60.44
2019-02-28T02:37:53.335Z,60.80
2019-02-28T02:41:00.567Z,60.74
2019-02-28T02:44:04.545Z,60.86
2019-02-28T02:47:08.970Z,60.69
2019-02-28T02:50:16.891Z,60.52
2019-02-28T02:53:21.331Z,60.78
2019-02-28T02:56:26.019Z,60.89
2019-02-28T02:59:37.238Z,61.54
2019-02-28T03:02:36.629Z,61.72
2019-02-28T03:05:41.342Z,61.62
2019-02-28T03:08:45.794Z,61.80
2019-02-28T03:11:50.493Z,62.22
2019-02-28T03:14:55.063Z,61.14
2019-02-28T03:17:59.755Z,61.91
2019-02-28T03:21:04.500Z,62.47
2019-02-28T03:24:14.563Z,62.54
2019-02-28T03:27:19.204Z,62.45
2019-02-28T03:30:28.936Z,62.70
2019-02-28T03:33:29.214Z,62.47
2019-02-28T03:36:34.076Z,62.39
2019-02-28T03:39:38.524Z,62.88
2019-02-28T03:42:42.966Z,62.97
2019-02-28T03:45:47.413Z,63.08
2019-02-28T03:48:51.861Z,63.13
2019-02-28T03:51:56.294Z,62.87
2019-02-28T03:55:03.363Z,62.36
2019-02-28T03:58:07.252Z,62.47
2019-02-28T04:01:12.023Z,63.15
2019-02-28T04:04:16.751Z,62.86
2019-02-28T04:07:21.479Z,62.99
2019-02-28T04:10:25.931Z,63.27
2019-02-28T04:13:30.374Z,62.89
2019-02-28T04:16:34.808Z,63.60
2019-02-28T04:19:39.587Z,64.02
2019-02-28T04:22:44.016Z,63.73
2019-02-28T04:25:48.463Z,63.81
2019-02-28T04:28:54.699Z,64.17
2019-02-28T04:31:59.073Z,63.59
2019-02-28T04:35:03.986Z,63.58
2019-02-28T04:38:08.643Z,64.31
2019-02-28T04:41:13.422Z,64.39
2019-02-28T04:44:18.232Z,63.64
2019-02-28T04:47:23.460Z,64.53
2019-02-28T04:50:31.264Z,64.68
2019-02-28T04:53:34.037Z,65.50
2019-02-28T04:56:38.712Z,65.02
2019-02-28T04:59:43.400Z,64.81
2019-02-28T05:02:47.833Z,64.45
2019-02-28T05:05:52.275Z,64.37
2019-02-28T05:08:56.703Z,64.69
2019-02-28T05:12:02.462Z,64.22
2019-02-28T05:15:10.836Z,64.76
2019-02-28T05:18:15.270Z,65.12
2019-02-28T05:21:20.283Z,65.50
2019-02-28T05:24:24.714Z,65.35
2019-02-28T05:27:34.942Z,65.61
2019-02-28T05:30:35.327Z,65.50
2019-02-28T05:33:41.889Z,65.17
2019-02-28T05:36:46.258Z,65.09
2019-02-28T05:39:50.685Z,65.12
2019-02-28T05:42:58.501Z,65.54
2019-02-28T05:46:01.590Z,65.80
2019-02-28T05:49:08.650Z,66.24
2019-02-28T05:52:12.770Z,66.17
2019-02-28T05:55:17.507Z,66.21
2019-02-28T05:58:21.952Z,66.74
2019-02-28T06:01:26.656Z,66.16
2019-02-28T06:04:31.091Z,65.25
2019-02-28T06:07:35.826Z,66.67
2019-02-28T06:10:40.274Z,67.22
2019-02-28T06:13:44.709Z,67.27
2019-02-28T06:16:49.150Z,67.11
2019-02-28T06:19:53.611Z,66.95
2019-02-28T06:22:58.166Z,66.26
2019-02-28T06:26:02.865Z,65.41
2019-02-28T06:29:07.630Z,64.40
2019-02-28T06:32:13.607Z,62.79
2019-02-28T06:35:20.357Z,60.33
2019-02-28T06:38:24.864Z,59.49
2019-02-28T06:41:29.301Z,58.02
2019-02-28T06:44:33.737Z,56.11
2019-02-28T06:47:39.097Z,53.50
2019-02-28T06:50:44.730Z,51.83
2019-02-28T06:53:49.986Z,49.34
2019-02-28T06:56:55.326Z,47.53
2019-02-28T06:59:59.914Z,46.42
2019-02-28T07:03:04.483Z,44.81
2019-02-28T07:06:08.886Z,43.31
2019-02-28T07:09:13.606Z,42.46
2019-02-28T07:12:18.063Z,44.61
2019-02-28T07:15:24.813Z,46.69
2019-02-28T07:18:28.742Z,49.38
2019-02-28T07:21:34.554Z,51.96
2019-02-28T07:24:39.109Z,53.70
2019-02-28T07:27:43.630Z,55.05
2019-02-28T07:30:50.298Z,56.97
2019-02-28T07:33:54.251Z,57.73
2019-02-28T07:36:58.700Z,58.48
2019-02-28T07:40:03.585Z,59.79
2019-02-28T07:43:12.030Z,61.11
2019-02-28T07:46:14.191Z,60.44
2019-02-28T07:49:18.630Z,60.32
2019-02-28T07:52:23.071Z,60.18
2019-02-28T07:55:30.507Z,60.09
2019-02-28T07:58:34.123Z,59.64
2019-02-28T08:01:38.555Z,58.88
2019-02-28T08:04:43.717Z,58.47
2019-02-28T08:07:52.069Z,57.99
2019-02-28T08:10:54.873Z,57.59
2019-02-28T08:13:59.606Z,59.17
2019-02-28T08:17:05.505Z,57.67
2019-02-28T08:20:10.602Z,56.21
2019-02-28T08:23:15.336Z,53.96
2019-02-28T08:26:19.799Z,52.73
2019-02-28T08:29:24.485Z,52.06
2019-02-28T08:32:28.918Z,51.35
2019-02-28T08:35:34.800Z,50.45
2019-02-28T08:38:39.537Z,50.47
2019-02-28T08:41:44.041Z,50.30
2019-02-28T08:44:48.485Z,49.44
2019-02-28T08:47:56.782Z,49.01
2019-02-28T08:50:59.797Z,47.90
2019-02-28T08:54:06.035Z,46.94
2019-02-28T08:57:10.562Z,46.30
2019-02-28T09:00:21.219Z,45.76
2019-02-28T09:03:27.233Z,45.74
2019-02-28T09:06:32.126Z,46.05
2019-02-28T09:09:36.950Z,45.89
2019-02-28T09:12:41.781Z,45.66
2019-02-28T09:15:46.621Z,46.10
2019-02-28T09:18:51.073Z,45.65
2019-02-28T09:21:55.517Z,46.01
2019-02-28T09:25:00.297Z,45.56
2019-02-28T09:28:04.813Z,45.31
2019-02-28T09:31:09.658Z,45.54
2019-02-28T09:34:14.116Z,45.54
2019-02-28T09:37:18.807Z,44.84
2019-02-28T09:40:25.641Z,45.40
2019-02-28T09:43:29.436Z,44.76
2019-02-28T09:46:34.236Z,43.48
2019-02-28T09:49:38.677Z,42.29
2019-02-28T09:52:43.197Z,41.18
2019-02-28T09:55:47.637Z,39.67
2019-02-28T09:58:52.460Z,40.20
2019-02-28T10:02:01.301Z,39.71
2019-02-28T10:05:06.595Z,38.07
2019-02-28T10:08:09.696Z,38.65
2019-02-28T10:11:14.170Z,37.91
2019-02-28T10:14:18.646Z,37.13
2019-02-28T10:17:25.861Z,36.22
2019-02-28T10:20:39.310Z,35.25
2019-02-28T10:23:43.742Z,34.30
2019-02-28T10:26:51.520Z,33.28
2019-02-28T10:29:54.690Z,34.83
2019-02-28T10:32:59.135Z,32.51
2019-02-28T10:36:03.584Z,32.78
2019-02-28T10:39:08.873Z,33.01
2019-02-28T10:42:14.209Z,33.81
2019-02-28T10:45:19.068Z,34.53
2019-02-28T10:48:23.579Z,33.91
2019-02-28T10:51:28.331Z,33.49
2019-02-28T10:54:32.781Z,34.94
2019-02-28T10:57:40.690Z,33.55
2019-02-28T11:00:45.630Z,32.30
2019-02-28T11:03:50.415Z,32.83
2019-02-28T11:06:54.870Z,32.76
2019-02-28T11:10:01.823Z,31.09
2019-02-28T11:13:12.821Z,31.16
2019-02-28T11:16:20.529Z,31.34
2019-02-28T11:19:23.695Z,31.45
2019-02-28T11:22:28.216Z,32.05
2019-02-28T11:25:35.532Z,31.54
2019-02-28T11:28:39.218Z,31.66
2019-02-28T11:31:43.670Z,30.44
2019-02-28T11:34:48.665Z,30.15
2019-02-28T11:37:53.883Z,29.67
2019-02-28T11:40:58.478Z,29.99
2019-02-28T11:44:03.177Z,29.76
2019-02-28T11:47:08.430Z,29.98
2019-02-28T11:50:13.879Z,29.88
2019-02-28T11:53:19.236Z,30.07
2019-02-28T11:56:25.580Z,31.01
2019-02-28T11:59:30.067Z,31.69
2019-02-28T12:02:34.528Z,31.58
2019-02-28T12:05:39.264Z,31.29
2019-02-28T12:08:45.112Z,30.75
2019-02-28T12:11:50.121Z,31.27
2019-02-28T12:14:54.576Z,32.17
2019-02-28T12:18:03.629Z,31.01
2019-02-28T12:21:05.494Z,30.72
2019-02-28T12:24:09.926Z,30.37
2019-02-28T12:27:14.379Z,30.60
2019-02-28T12:30:25.098Z,31.42
2019-02-28T12:33:28.871Z,30.46
2019-02-28T12:36:33.566Z,29.54
2019-02-28T12:39:38.368Z,28.07
2019-02-28T12:42:42.819Z,28.19
2019-02-28T12:45:47.905Z,28.09
2019-02-28T12:48:52.356Z,28.65
2019-02-28T12:51:57.081Z,29.25
2019-02-28T12:55:04.016Z,29.26
2019-02-28T12:58:07.989Z,28.86
2019-02-28T13:01:12.432Z,28.72
2019-02-28T13:04:17.140Z,29.41
2019-02-28T13:07:21.863Z,30.35
2019-02-28T13:10:27.923Z,30.34
2019-02-28T13:13:33.171Z,30.42
2019-02-28T13:16:37.616Z,30.41
2019-02-28T13:19:42.074Z,31.13
2019-02-28T13:22:46.860Z,30.76
2019-02-28T13:25:51.788Z,30.31
2019-02-28T13:28:57.446Z,29.95
2019-02-28T13:32:02.811Z,30.38
2019-02-28T13:35:14.082Z,30.23
2019-02-28T13:38:19.725Z,28.83
2019-02-28T13:41:26.764Z,27.88
2019-02-28T13:44:31.589Z,26.56
2019-02-28T13:47:37.202Z,25.20
2019-02-28T13:50:41.650Z,24.67
2019-02-28T13:53:46.178Z,24.81
2019-02-28T13:56:50.873Z,25.19
2019-02-28T13:59:55.605Z,25.15
2019-02-28T14:03:09.479Z,24.73
2019-02-28T14:06:18.740Z,24.06
2019-02-28T14:09:22.189Z,24.17
2019-02-28T14:12:26.140Z,25.54
2019-02-28T14:15:52.375Z,25.10
2019-02-28T14:18:56.852Z,25.09
2019-02-28T14:22:01.294Z,25.40
2019-02-28T14:25:09.183Z,25.72
2019-02-28T14:28:13.923Z,25.93
2019-02-28T14:31:18.367Z,25.74
2019-02-28T14:34:26.156Z,26.66
2019-02-28T14:37:29.021Z,27.00
2019-02-28T14:40:33.477Z,26.97
2019-02-28T14:43:37.932Z,27.31
2019-02-28T14:46:42.521Z,27.67
2019-02-28T14:49:46.986Z,28.47
2019-02-28T14:52:55.435Z,28.71
2019-02-28T14:55:59.928Z,29.50
2019-02-28T14:59:04.375Z,30.40
2019-02-28T15:02:08.834Z,31.06
2019-02-28T15:05:16.689Z,31.54
2019-02-28T15:08:22.191Z,31.69
2019-02-28T15:11:27.004Z,32.18
2019-02-28T15:14:31.465Z,32.79
2019-02-28T15:17:38.670Z,33.44
2019-02-28T15:20:42.427Z,34.00
2019-02-28T15:23:46.880Z,34.13
2019-02-28T15:26:51.325Z,34.41
2019-02-28T15:29:58.866Z,33.74
2019-02-28T15:33:02.595Z,33.16
2019-02-28T15:36:07.332Z,33.42
2019-02-28T15:39:12.037Z,34.85
2019-02-28T15:42:16.549Z,37.05
2019-02-28T15:45:21.010Z,38.57
2019-02-28T15:48:25.469Z,38.50
2019-02-28T15:51:30.333Z,38.82
2019-02-28T15:54:34.775Z,39.41
2019-02-28T15:57:39.812Z,39.67
2019-02-28T16:00:44.544Z,40.11
2019-02-28T16:03:51.286Z,40.82
2019-02-28T16:06:57.955Z,41.46
2019-02-28T16:10:02.007Z,41.85
2019-02-28T16:13:08.174Z,42.32
2019-02-28T16:16:12.626Z,42.57
2019-02-28T16:19:18.872Z,43.46
2019-02-28T16:22:23.244Z,44.03
2019-02-28T16:25:34.232Z,44.58
2019-02-28T16:28:39.535Z,44.59
2019-02-28T16:31:44.923Z,44.60
2019-02-28T16:34:49.435Z,44.70
2019-02-28T16:37:53.885Z,44.66
2019-02-28T16:41:00.825Z,44.22
2019-02-28T16:44:04.801Z,44.29
2019-02-28T16:47:09.567Z,44.18
2019-02-28T16:50:15.379Z,44.46
2019-02-28T16:53:20.835Z,44.89
2019-02-28T16:56:25.667Z,44.93
2019-02-28T16:59:31.544Z,44.99
2019-02-28T17:02:36.869Z,44.91
2019-02-28T17:05:41.321Z,45.32
2019-02-28T17:08:47.668Z,45.73
2019-02-28T17:11:54.029Z,45.85
2019-02-28T17:14:58.498Z,45.68
2019-02-28T17:18:04.934Z,45.69
2019-02-28T17:21:09.390Z,45.80
2019-02-28T17:24:13.845Z,45.77
2019-02-28T17:27:20.247Z,45.07
2019-02-28T17:30:29.671Z,45.24
2019-02-28T17:33:34.732Z,45.66
2019-02-28T17:36:39.192Z,46.35
2019-02-28T17:39:44.026Z,46.62
2019-02-28T17:42:49.671Z,47.21
2019-02-28T17:45:55.080Z,47.94
2019-02-28T17:49:26.389Z,48.48
2019-02-28T17:52:59.754Z,48.75
2019-02-28T17:56:30.990Z,49.35
2019-02-28T17:59:59.442Z,49.59
2019-02-28T18:03:26.118Z,49.95
2019-02-28T18:06:52.239Z,51.01
2019-02-28T18:10:13.266Z,52.51
2019-02-28T18:13:43.084Z,53.14
2019-02-28T18:17:21.294Z,53.50
2019-02-28T18:21:00.716Z,53.81
2019-02-28T18:24:27.808Z,54.41
2019-02-28T18:28:03.481Z,54.94
2019-02-28T18:31:12.994Z,55.62
2019-02-28T18:34:20.535Z,55.70
2019-02-28T18:37:24.506Z,55.68
2019-02-28T18:40:29.143Z,56.12
2019-02-28T18:43:33.587Z,55.82
2019-02-28T18:46:38.053Z,55.44
2019-02-28T18:49:42.503Z,55.43
2019-02-28T18:52:47.239Z,55.44
2019-02-28T18:55:51.971Z,55.18
2019-02-28T18:58:56.704Z,55.19
2019-02-28T19:02:01.151Z,55.18
2019-02-28T19:05:07.256Z,55.24
2019-02-28T19:08:11.803Z,54.97
2019-02-28T19:11:16.352Z,55.08
2019-02-28T19:14:20.789Z,55.10
2019-02-28T19:17:25.496Z,55.48
2019-02-28T19:20:29.931Z,55.52
2019-02-28T19:23:34.665Z,55.93
2019-02-28T19:26:39.379Z,56.00
2019-02-28T19:29:43.811Z,55.65
2019-02-28T19:32:48.271Z,55.96
2019-02-28T19:35:52.968Z,56.14
2019-02-28T19:38:57.419Z,56.29
2019-02-28T19:42:02.240Z,56.53
2019-02-28T19:45:38.291Z,56.79
2019-02-28T19:48:42.744Z,56.43
2019-02-28T19:51:47.204Z,56.43
2019-02-28T19:54:51.640Z,55.93
2019-02-28T19:57:56.388Z,55.67
2019-02-28T20:01:00.829Z,55.25
2019-02-28T20:04:05.639Z,55.03
2019-02-28T20:07:10.476Z,55.28
2019-02-28T20:10:18.062Z,54.60
2019-02-28T20:13:22.797Z,54.46
2019-02-28T20:16:27.535Z,54.53
2019-02-28T20:19:31.973Z,54.34
2019-02-28T20:22:36.493Z,54.27
2019-02-28T20:25:40.929Z,53.85
2019-02-28T20:28:45.865Z,53.83
2019-02-28T20:31:50.571Z,53.44
2019-02-28T20:34:55.304Z,53.70
2019-02-28T20:38:00.034Z,53.24
2019-02-28T20:41:04.867Z,52.69
2019-02-28T20:44:09.327Z,52.31
2019-02-28T20:47:14.022Z,52.16
2019-02-28T20:50:23.556Z,52.10
2019-02-28T20:53:27.998Z,51.54
2019-02-28T20:56:32.439Z,51.44
2019-02-28T20:59:36.894Z,51.77
2019-02-28T21:02:41.352Z,51.74
2019-02-28T21:05:45.867Z,51.28
2019-02-28T21:08:50.615Z,51.42
2019-02-28T21:11:55.059Z,51.22
2019-02-28T21:15:01.322Z,51.05
2019-02-28T21:18:06.446Z,51.24
2019-02-28T21:21:11.205Z,51.42
2019-02-28T21:24:15.628Z,50.92
2019-02-28T21:27:20.073Z,50.46
2019-02-28T21:30:27.314Z,50.80
2019-02-28T21:33:31.766Z,50.83
2019-02-28T21:36:36.212Z,51.15
2019-02-28T21:39:40.658Z,50.85
2019-02-28T21:42:45.096Z,50.99
2019-02-28T21:45:49.559Z,50.82
2019-02-28T21:48:54.266Z,51.01
2019-02-28T21:51:58.995Z,51.38
2019-02-28T21:55:04.318Z,51.54
2019-02-28T21:58:09.073Z,51.30
2019-02-28T22:01:13.512Z,51.53
2019-02-28T22:04:17.957Z,52.07
2019-02-28T22:07:22.754Z,52.33
2019-02-28T22:10:27.211Z,52.29
2019-02-28T22:13:32.007Z,52.30
2019-02-28T22:16:36.739Z,52.42
2019-02-28T22:19:41.187Z,52.42
2019-02-28T22:22:46.000Z,52.97
2019-02-28T22:25:50.729Z,53.79
2019-02-28T22:28:55.177Z,53.84
2019-02-28T22:32:07.577Z,54.71
2019-02-28T22:35:14.037Z,54.72
2019-02-28T22:38:18.483Z,54.87
2019-02-28T22:41:23.188Z,55.21
2019-02-28T22:44:27.635Z,55.54
2019-02-28T22:47:32.073Z,56.08
2019-02-28T22:50:36.519Z,55.96
2019-02-28T22:53:41.294Z,56.27
2019-02-28T22:56:46.572Z,56.28
2019-02-28T22:59:51.019Z,56.89
2019-02-28T23:02:55.461Z,57.01
2019-02-28T23:05:59.977Z,57.16
2019-02-28T23:09:05.270Z,57.65
2019-02-28T23:12:09.981Z,57.71
2019-02-28T23:15:14.730Z,57.82
2019-02-28T23:18:19.177Z,57.75
2019-02-28T23:21:23.618Z,59.13
2019-02-28T23:24:28.090Z,60.94
2019-02-28T23:27:32.812Z,61.33
2019-02-28T23:30:57.108Z,61.22
2019-02-28T23:34:14.486Z,61.05
2019-02-28T23:37:19.267Z,61.12
2019-02-28T23:40:23.703Z,61.33
2019-02-28T23:43:28.425Z,61.32
2019-02-28T23:46:33.156Z,62.04
2019-02-28T23:49:37.590Z,63.59
2019-02-28T23:52:42.040Z,64.94
2019-02-28T23:55:46.530Z,66.47
2019-02-28T23:58:51.262Z,67.56
